Time;durP1;ratioP1;P1;durP2;ratioP2;P2;SDS_P1;SDS_P2;PMS_P1;PMS_P2;Temp;Humidity;BMP_temperature;BMP_pressure;BME280_temperature;BME280_humidity;BME280_pressure;Samples;Min_cycle;Max_cycle;Signal;HPM_P1;HPM_P2
2023/08/13 00:01:35;;;;;;;12.48;4.63;;;;;;;;;;5018238;28;20052;-84
2023/08/13 00:04:01;;;;;;;4.72;2.92;;;;;;;;;;5017540;28;20052;-82
2023/08/13 00:06:27;;;;;;;9.52;3.20;;;;;;;;;;5017681;28;20043;-84
2023/08/13 00:08:53;;;;;;;17.25;3.92;;;;;;;;;;5018278;28;20048;-84
2023/08/13 00:11:19;;;;;;;12.13;3.55;;;;;;;;;;5018084;28;20091;-83
2023/08/13 00:13:45;;;;;;;7.95;2.92;;;;;;;;;;5018357;28;20056;-84
2023/08/13 00:16:11;;;;;;;9.93;3.50;;;;;;;;;;5034373;28;20049;-84
2023/08/13 00:18:37;;;;;;;9.00;3.70;;;;;;;;;;5034307;28;20053;-83
2023/08/13 00:21:03;;;;;;;8.48;3.60;;;;;;;;;;5001359;28;20044;-84
2023/08/13 00:23:29;;;;;;;16.85;3.60;;;;;;;;;;5001427;28;20083;-82
2023/08/13 00:25:55;;;;;;;9.18;3.58;;;;;;;;;;5034058;28;20084;-82
2023/08/13 00:28:21;;;;;;;7.65;3.00;;;;;;;;;;5017714;28;20041;-83
2023/08/13 00:30:47;;;;;;;8.82;3.38;;;;;;;;;;5017442;28;20044;-84
2023/08/13 00:33:14;;;;;;;9.68;2.75;;;;;;;;;;5017060;28;20151;-84
2023/08/13 00:35:40;;;;;;;10.48;3.78;;;;;;;;;;5033804;28;20048;-84
2023/08/13 00:38:06;;;;;;;14.48;3.67;;;;;;;;;;5033778;28;20045;-84
2023/08/13 00:40:34;;;;;;;6.28;2.60;;;16.10;1.00;;;;;;5017259;28;20060;-84
2023/08/13 00:43:00;;;;;;;15.00;3.92;;;;;;;;;;5017319;28;20072;-86
2023/08/13 00:45:26;;;;;;;11.80;3.28;;;;;;;;;;5001572;28;20049;-91
2023/08/13 00:47:54;;;;;;;10.02;3.47;;;16.30;1.00;;;;;;5018193;28;20041;-90
2023/08/13 00:50:21;;;;;;;8.30;3.22;;;;;;;;;;5001600;28;20106;-88
2023/08/13 00:52:47;;;;;;;10.32;2.75;;;;;;;;;;5017988;28;20192;-89
2023/08/13 00:55:14;;;;;;;6.95;3.13;;;;;;;;;;5004559;28;20045;-85
2023/08/13 00:57:40;;;;;;;17.55;3.55;;;;;;;;;;5005595;28;20049;-85
2023/08/13 01:00:08;;;;;;;5.38;3.20;;;;;;;;;;5021379;28;20052;-87
2023/08/13 01:02:34;;;;;;;6.85;2.97;;;;;;;;;;5020999;28;20044;-87
2023/08/13 01:05:00;;;;;;;10.35;3.25;;;;;;;;;;5005124;28;20102;-86
2023/08/13 01:07:29;;;;;;;12.98;3.50;;;;;;;;;;5038396;28;20045;-88
2023/08/13 01:10:02;;;;;;;12.50;3.03;;;;;;;;;;5038651;28;20513;-87
2023/08/13 01:12:43;;;;;;;13.30;3.85;;;;;;;;;;5022021;28;20045;-86
2023/08/13 01:15:16;;;;;;;6.25;3.25;;;;;;;;;;5021580;28;20095;-85
2023/08/13 01:17:43;;;;;;;12.85;3.92;;;16.00;1.00;;;;;;5038352;28;20060;-87
2023/08/13 01:20:09;;;;;;;8.15;3.28;;;;;;;;;;5005349;28;20133;-85
2023/08/13 01:22:39;;;;;;;11.85;3.25;;;;;;;;;;5021772;28;20044;-85
2023/08/13 01:25:08;;;;;;;13.27;3.80;;;;;;;;;;5021742;28;20045;-84
2023/08/13 01:27:34;;;;;;;10.77;3.67;;;;;;;;;;5021576;28;20044;-89
2023/08/13 01:30:11;;;;;;;6.40;3.28;;;;;;;;;;5021332;28;20132;-88
2023/08/13 01:32:42;;;;;;;15.60;3.58;;;16.00;1.00;;;;;;5037689;28;20057;-87
2023/08/13 01:35:09;;;;;;;9.65;3.63;;;;;;;;;;5038099;28;20061;-88
2023/08/13 01:37:36;;;;;;;11.40;2.83;;;;;;;;;;5021986;28;20053;-83
2023/08/13 01:40:03;;;;;;;11.80;3.05;;;;;;;;;;5020837;28;20099;-86
2023/08/13 01:42:33;;;;;;;8.60;3.00;;;16.10;1.00;;;;;;5037462;28;20123;-88
2023/08/13 01:44:59;;;;;;;10.52;3.30;;;;;;;;;;5037065;28;20080;-90
2023/08/13 01:47:25;;;;;;;13.70;3.13;;;;;;;;;;5020823;28;20037;-87
2023/08/13 01:49:51;;;;;;;6.80;3.35;;;;;;;;;;5036889;28;20045;-86
2023/08/13 01:52:17;;;;;;;12.75;4.07;;;;;;;;;;5020186;28;20036;-85
2023/08/13 01:54:43;;;;;;;15.55;4.38;;;;;;;;;;5004608;28;20049;-87
2023/08/13 01:57:09;;;;;;;11.18;3.42;;;;;;;;;;5020958;28;20202;-89
2023/08/13 01:59:35;;;;;;;15.77;3.25;;;;;;;;;;5020789;28;20055;-82
2023/08/13 02:02:01;;;;;;;11.60;3.80;;;;;;;;;;5020863;28;20040;-85
2023/08/13 02:04:27;;;;;;;13.27;3.30;;;;;;;;;;5020622;28;20136;-89
2023/08/13 02:06:53;;;;;;;11.15;3.63;;;;;;;;;;5020112;28;20067;-87
2023/08/13 02:09:19;;;;;;;20.08;5.30;;;;;;;;;;5020559;28;20077;-85
2023/08/13 02:11:45;;;;;;;10.48;3.45;;;;;;;;;;5037061;28;20044;-85
2023/08/13 02:14:12;;;;;;;10.25;3.97;;;;;;;;;;5037540;28;20127;-83
2023/08/13 02:16:38;;;;;;;14.57;4.05;;;;;;;;;;5036603;28;20037;-83
2023/08/13 02:19:04;;;;;;;13.70;4.00;;;;;;;;;;5036384;28;20133;-84
2023/08/13 02:21:30;;;;;;;7.90;3.38;;;;;;;;;;5036394;28;20132;-83
2023/08/13 02:23:56;;;;;;;11.18;3.72;;;;;;;;;;5019802;28;20053;-83
2023/08/13 02:26:22;;;;;;;16.95;3.55;;;;;;;;;;5020129;28;20107;-83
2023/08/13 02:28:48;;;;;;;12.93;3.78;;;;;;;;;;5036514;28;20119;-83
2023/08/13 02:31:14;;;;;;;17.15;4.47;;;;;;;;;;5019983;28;20401;-83
2023/08/13 02:33:40;;;;;;;7.50;3.58;;;;;;;;;;5019671;28;20092;-83
2023/08/13 02:36:06;;;;;;;12.90;4.20;;;;;;;;;;4983924;28;20053;-85
2023/08/13 02:38:32;;;;;;;10.10;3.40;;;;;;;;;;5015906;28;20048;-84
2023/08/13 02:40:58;;;;;;;9.05;3.92;;;;;;;;;;5015968;28;20045;-83
2023/08/13 02:43:28;;;;;;;17.90;4.13;;;15.90;1.00;;;;;;4983390;28;20091;-83
2023/08/13 02:45:54;;;;;;;15.20;3.80;;;;;;;;;;4983722;28;20049;-82
2023/08/13 02:48:20;;;;;;;18.33;3.85;;;;;;;;;;4999418;28;20171;-83
2023/08/13 02:50:46;;;;;;;12.40;4.00;;;;;;;;;;4999551;28;20053;-83
2023/08/13 02:53:12;;;;;;;15.30;3.60;;;;;;;;;;4999304;28;20050;-84
2023/08/13 02:55:38;;;;;;;19.48;5.30;;;;;;;;;;4983343;28;20505;-83
2023/08/13 02:58:04;;;;;;;11.60;3.55;;;;;;;;;;4999663;28;20120;-84
2023/08/13 03:00:30;;;;;;;11.00;3.30;;;;;;;;;;4999280;28;20049;-84
2023/08/13 03:02:56;;;;;;;9.35;3.65;;;;;;;;;;4983064;28;20041;-84
2023/08/13 03:05:22;;;;;;;11.95;4.22;;;;;;;;;;4982996;28;20041;-85
2023/08/13 03:07:49;;;;;;;13.63;4.65;;;;;;;;;;4999310;28;20485;-83
2023/08/13 03:10:15;;;;;;;10.57;4.03;;;;;;;;;;4983186;28;20049;-83
2023/08/13 03:12:41;;;;;;;17.80;4.22;;;;;;;;;;4999188;28;20042;-83
2023/08/13 03:15:07;;;;;;;14.02;3.58;;;;;;;;;;4983172;28;20120;-82
2023/08/13 03:17:33;;;;;;;22.75;4.82;;;;;;;;;;5014323;28;20471;-82
2023/08/13 03:19:59;;;;;;;12.25;3.88;;;;;;;;;;4998980;28;20406;-84
2023/08/13 03:22:25;;;;;;;11.65;3.83;;;;;;;;;;4983155;28;20124;-83
2023/08/13 03:24:51;;;;;;;20.45;4.47;;;;;;;;;;4999257;28;20076;-84
2023/08/13 03:27:17;;;;;;;17.52;3.83;;;;;;;;;;4998780;28;20084;-84
2023/08/13 03:29:43;;;;;;;13.02;3.22;;;;;;;;;;4982856;28;20379;-83
2023/08/13 03:32:09;;;;;;;12.77;3.88;;;;;;;;;;4984330;28;20102;-83
2023/08/13 03:34:35;;;;;;;9.68;3.97;;;;;;;;;;5017944;28;20057;-84
2023/08/13 03:37:01;;;;;;;17.75;5.47;;;;;;;;;;5035055;28;20101;-83
2023/08/13 03:39:28;;;;;;;15.00;4.95;;;;;;;;;;5018380;28;20449;-84
2023/08/13 03:41:54;;;;;;;11.13;3.88;;;;;;;;;;5018544;28;20187;-83
2023/08/13 03:44:20;;;;;;;14.80;3.67;;;;;;;;;;5034404;28;20037;-83
2023/08/13 03:46:46;;;;;;;17.35;4.05;;;;;;;;;;5018143;28;20132;-83
2023/08/13 03:49:12;;;;;;;15.60;4.35;;;;;;;;;;5018037;28;20041;-83
2023/08/13 03:51:38;;;;;;;11.38;4.68;;;;;;;;;;5017906;28;20044;-83
2023/08/13 03:54:04;;;;;;;17.38;5.20;;;;;;;;;;5017890;28;20127;-82
2023/08/13 03:56:30;;;;;;;12.80;4.00;;;;;;;;;;5018375;28;20055;-82
2023/08/13 03:58:56;;;;;;;8.55;3.67;;;;;;;;;;5019195;28;20115;-82
2023/08/13 04:01:22;;;;;;;12.70;5.00;;;;;;;;;;5018494;28;20048;-84
2023/08/13 04:03:48;;;;;;;16.40;4.63;;;;;;;;;;5001581;28;20579;-83
2023/08/13 04:06:14;;;;;;;14.15;4.85;;;;;;;;;;5034607;28;20128;-85
2023/08/13 04:08:40;;;;;;;12.82;4.05;;;;;;;;;;5018260;28;20080;-84
2023/08/13 04:11:06;;;;;;;17.17;4.43;;;;;;;;;;5017902;28;20033;-83
2023/08/13 04:13:32;;;;;;;10.57;3.75;;;;;;;;;;5017998;28;20045;-84
2023/08/13 04:15:58;;;;;;;5.78;3.40;;;;;;;;;;5001965;28;20037;-85
2023/08/13 04:18:24;;;;;;;16.67;4.25;;;;;;;;;;5034686;28;20045;-84
2023/08/13 04:20:51;;;;;;;9.20;3.63;;;;;;;;;;5052501;28;20085;-84
2023/08/13 04:23:17;;;;;;;9.85;5.10;;;;;;;;;;5017736;28;20500;-84
2023/08/13 04:25:43;;;;;;;11.93;4.20;;;;;;;;;;5052108;28;20513;-85
2023/08/13 04:28:09;;;;;;;11.82;3.92;;;;;;;;;;5034389;28;20049;-83
2023/08/13 04:30:35;;;;;;;18.30;4.78;;;;;;;;;;5034530;28;20045;-83
2023/08/13 04:33:02;;;;;;;16.48;4.93;;;15.80;14.80;;;;;;5017469;28;20175;-83
2023/08/13 04:35:28;;;;;;;14.88;4.20;;;;;;;;;;5017918;28;20131;-85
2023/08/13 04:37:54;;;;;;;11.00;3.28;;;;;;;;;;5017929;28;20616;-84
2023/08/13 04:40:20;;;;;;;10.43;4.90;;;;;;;;;;5017773;28;20049;-85
2023/08/13 04:42:46;;;;;;;15.18;4.07;;;;;;;;;;5017784;28;20402;-85
2023/08/13 04:45:12;;;;;;;9.77;3.92;;;16.00;30.80;;;;;;5018527;28;20052;-90
2023/08/13 04:47:38;;;;;;;7.32;3.60;;;;;;;;;;5018684;28;20436;-90
2023/08/13 04:50:05;;;;;;;7.53;4.00;;;;;;;;;;5018545;28;20045;-89
2023/08/13 04:52:31;;;;;;;11.55;3.90;;;;;;;;;;5018346;28;20076;-90
2023/08/13 04:54:58;;;;;;;14.52;3.90;;;;;;;;;;5035029;28;20071;-86
2023/08/13 04:57:24;;;;;;;12.63;4.15;;;;;;;;;;5034859;28;20501;-90
2023/08/13 04:59:50;;;;;;;10.07;3.80;;;;;;;;;;5035227;28;20490;-89
2023/08/13 05:02:16;;;;;;;11.65;3.80;;;;;;;;;;5034535;28;20048;-89
2023/08/13 05:04:41;;;;;;;10.43;3.90;;;16.30;37.90;;;;;;5018362;28;20045;-90
2023/08/13 05:07:07;;;;;;;18.45;4.38;;;;;;;;;;5002098;28;20402;-90
2023/08/13 05:09:34;;;;;;;10.40;3.67;;;;;;;;;;5002054;28;20052;-90
2023/08/13 05:12:00;;;;;;;14.70;5.18;;;;;;;;;;5018683;28;20041;-83
2023/08/13 05:14:27;;;;;;;10.90;4.43;;;;;;;;;;5034712;28;20136;-90
2023/08/13 05:16:54;;;;;;;16.38;5.72;;;16.60;24.50;;;;;;4999922;28;20091;-84
2023/08/13 05:19:20;;;;;;;13.07;4.30;;;;;;;;;;4998349;28;20050;-89
2023/08/13 05:21:46;;;;;;;18.63;4.40;;;;;;;;;;4998315;28;20052;-89
2023/08/13 05:24:13;;;;;;;16.10;4.97;;;;;;;;;;4998114;28;20049;-87
2023/08/13 05:26:39;;;;;;;11.27;3.95;;;;;;;;;;5014259;28;20041;-85
2023/08/13 05:29:05;;;;;;;12.20;3.72;;;;;;;;;;4998216;28;20086;-85
2023/08/13 05:31:32;;;;;;;13.10;5.00;;;;;;;;;;5014619;28;20473;-85
2023/08/13 05:33:58;;;;;;;18.05;4.43;;;;;;;;;;4997631;28;20100;-86
2023/08/13 05:36:24;;;;;;;13.43;4.90;;;;;;;;;;5014203;28;20050;-86
2023/08/13 05:38:50;;;;;;;14.05;5.05;;;;;;;;;;4998022;28;20491;-83
2023/08/13 05:41:16;;;;;;;14.63;4.35;;;;;;;;;;5015793;28;20048;-85
2023/08/13 05:43:42;;;;;;;10.43;4.40;;;;;;;;;;4985086;28;20056;-85
2023/08/13 05:46:09;;;;;;;8.98;3.33;;;;;;;;;;5017835;28;20087;-85
2023/08/13 05:48:35;;;;;;;14.15;4.88;;;;;;;;;;5001342;28;20049;-86
2023/08/13 05:51:00;;;;;;;12.60;4.32;;;16.80;40.50;;;;;;5001082;28;20124;-84
2023/08/13 05:53:26;;;;;;;6.57;3.58;;;;;;;;;;5001244;28;20180;-86
2023/08/13 05:55:53;;;;;;;10.85;4.20;;;;;;;;;;5017754;28;20041;-88
2023/08/13 05:58:19;;;;;;;12.20;4.07;;;;;;;;;;5001182;28;20107;-85
2023/08/13 06:00:45;;;;;;;16.48;4.18;;;;;;;;;;4985183;28;20045;-87
2023/08/13 06:03:11;;;;;;;9.40;3.85;;;;;;;;;;4984690;28;20045;-90
2023/08/13 06:05:37;;;;;;;13.88;4.15;;;16.60;25.30;;;;;;5017567;28;20133;-85
2023/08/13 06:08:04;;;;;;;8.68;4.90;;;;;;;;;;5001161;28;20443;-89
2023/08/13 06:10:30;;;;;;;14.23;5.07;;;;;;;;;;5016881;28;20052;-88
2023/08/13 06:12:56;;;;;;;10.43;5.00;;;;;;;;;;5016690;28;20532;-87
2023/08/13 06:15:23;;;;;;;11.60;5.57;;;;;;;;;;5000697;28;20131;-89
2023/08/13 06:17:49;;;;;;;9.00;4.28;;;;;;;;;;5000305;28;20050;-86
2023/08/13 06:20:15;;;;;;;11.32;4.70;;;;;;;;;;5000310;28;20046;-84
2023/08/13 06:22:42;;;;;;;23.95;5.22;;;;;;;;;;5033937;28;20091;-84
2023/08/13 06:25:08;;;;;;;23.42;6.00;;;;;;;;;;5034714;28;20095;-87
2023/08/13 06:27:34;;;;;;;15.10;4.78;;;;;;;;;;5017190;28;20470;-87
2023/08/13 06:30:00;;;;;;;12.18;4.60;;;;;;;;;;5034979;28;20135;-87
2023/08/13 06:32:26;;;;;;;14.50;5.53;;;;;;;;;;5016944;28;20124;-85
2023/08/13 06:34:52;;;;;;;13.25;4.72;;;;;;;;;;5000677;28;20053;-85
2023/08/13 06:37:18;;;;;;;10.38;4.82;;;;;;;;;;5000971;28;20137;-85
2023/08/13 06:39:45;;;;;;;13.30;4.60;;;17.40;25.30;;;;;;5016902;28;20075;-83
2023/08/13 06:42:11;;;;;;;13.23;4.10;;;;;;;;;;5000321;28;20053;-84
2023/08/13 06:44:37;;;;;;;12.18;4.57;;;;;;;;;;5000421;28;20049;-86
2023/08/13 06:47:03;;;;;;;10.73;4.55;;;;;;;;;;5000399;28;20514;-85
2023/08/13 06:49:29;;;;;;;9.30;4.53;;;17.20;33.20;;;;;;5000564;28;20506;-86
2023/08/13 06:51:55;;;;;;;19.08;4.72;;;;;;;;;;4983338;28;20044;-85
2023/08/13 06:54:21;;;;;;;11.20;5.00;;;;;;;;;;4999659;28;20450;-87
2023/08/13 06:56:47;;;;;;;17.77;4.13;;;;;;;;;;4999476;28;20609;-87
2023/08/13 06:59:13;;;;;;;7.75;4.63;;;;;;;;;;5015674;28;20128;-86
2023/08/13 07:01:40;;;;;;;8.93;4.85;;;;;;;;;;4999325;28;20052;-86
2023/08/13 07:04:06;;;;;;;18.40;5.32;;;;;;;;;;4999121;28;20045;-84
2023/08/13 07:06:32;;;;;;;22.73;6.57;;;;;;;;;;4999460;28;20072;-86
2023/08/13 07:08:58;;;;;;;18.10;4.95;;;17.80;29.90;;;;;;4999191;28;20048;-86
2023/08/13 07:11:24;;;;;;;13.60;4.57;;;;;;;;;;4999191;28;20042;-86
2023/08/13 07:13:55;;;;;;;6.82;4.03;;;;;;;;;;4982973;28;20041;-85
2023/08/13 07:16:21;;;;;;;8.32;4.38;;;;;;;;;;4983531;28;20485;-85
2023/08/13 07:18:47;;;;;;;21.95;4.43;;;;;;;;;;4999023;28;20041;-85
2023/08/13 07:21:13;;;;;;;17.55;5.78;;;;;;;;;;4999144;28;20056;-86
2023/08/13 07:23:40;;;;;;;10.85;4.40;;;;;;;;;;4999123;28;20045;-86
2023/08/13 07:26:06;;;;;;;13.18;4.68;;;;;;;;;;4998794;28;20049;-85
2023/08/13 07:28:35;;;;;;;17.20;4.60;;;18.10;5.00;;;;;;4998730;28;20060;-87
2023/08/13 07:31:04;;;;;;;13.90;4.53;;;18.40;8.20;;;;;;5014963;28;20081;-86
2023/08/13 07:33:31;;;;;;;15.95;4.53;;;;;;;;;;4998243;28;20064;-86
2023/08/13 07:35:59;;;;;;;14.05;4.80;;;18.30;7.30;;;;;;4998788;28;20060;-85
2023/08/13 07:38:26;;;;;;;6.47;3.90;;;;;;;;;;5014668;28;20046;-86
2023/08/13 07:40:52;;;;;;;9.70;4.90;;;;;;;;;;4998419;28;20049;-86
2023/08/13 07:43:19;;;;;;;13.18;5.68;;;;;;;;;;4982941;28;20091;-86
2023/08/13 07:45:45;;;;;;;9.30;4.00;;;;;;;;;;4999168;28;20103;-86
2023/08/13 07:48:11;;;;;;;17.48;4.28;;;;;;;;;;4998477;28;20041;-86
2023/08/13 07:50:37;;;;;;;12.57;4.97;;;;;;;;;;4998556;28;20084;-85
2023/08/13 07:53:04;;;;;;;8.45;3.85;;;;;;;;;;4998198;28;20112;-86
2023/08/13 07:55:30;;;;;;;12.88;4.40;;;;;;;;;;5014851;28;20041;-85
2023/08/13 07:57:56;;;;;;;9.18;5.10;;;;;;;;;;4998226;28;20099;-85
2023/08/13 08:00:22;;;;;;;11.18;4.68;;;;;;;;;;4982456;28;20049;-84
2023/08/13 08:02:48;;;;;;;13.38;4.65;;;;;;;;;;4982014;28;20051;-86
2023/08/13 08:05:16;;;;;;;12.35;4.75;;;;;;;;;;4998253;28;20049;-87
2023/08/13 08:07:42;;;;;;;10.50;5.30;;;;;;;;;;4982609;28;20037;-87
2023/08/13 08:10:09;;;;;;;8.95;4.72;;;18.60;1.00;;;;;;4982110;28;20120;-86
2023/08/13 08:12:35;;;;;;;15.02;5.05;;;;;;;;;;4982434;28;20799;-88
2023/08/13 08:15:01;;;;;;;15.32;4.80;;;18.80;1.00;;;;;;4998450;28;20045;-85
2023/08/13 08:17:30;;;;;;;8.10;4.25;;;;;;;;;;4982847;28;20180;-87
2023/08/13 08:19:56;;;;;;;12.98;4.40;;;;;;;;;;5014324;28;20053;-85
2023/08/13 08:22:22;;;;;;;11.20;4.55;;;19.10;1.00;;;;;;5014813;28;20140;-87
2023/08/13 08:24:50;;;;;;;15.45;5.53;;;19.00;1.00;;;;;;5014993;28;20096;-88
2023/08/13 08:27:16;;;;;;;9.02;4.10;;;19.20;1.00;;;;;;4967244;28;20049;-87
2023/08/13 08:29:42;;;;;;;14.85;4.85;;;;;;;;;;4982365;28;20053;-86
2023/08/13 08:32:08;;;;;;;13.77;4.50;;;19.20;1.00;;;;;;4998254;28;20128;-88
2023/08/13 08:34:34;;;;;;;9.23;4.82;;;;;;;;;;4977418;28;20132;-88
2023/08/13 08:37:00;;;;;;;12.38;4.55;;;;;;;;;;5014805;28;20054;-90
2023/08/13 08:39:26;;;;;;;11.82;5.47;;;;;;;;;;4982645;28;20470;-88
2023/08/13 08:41:56;;;;;;;11.55;4.53;;;19.50;1.00;;;;;;4999054;28;20441;-86
2023/08/13 08:44:22;;;;;;;10.63;4.53;;;;;;;;;;5014613;28;20115;-88
2023/08/13 08:46:53;;;;;;;11.60;4.10;;;19.50;1.00;;;;;;5015296;28;20045;-89
2023/08/13 08:49:23;;;;;;;12.73;4.45;;;19.70;1.00;;;;;;4998544;28;20474;-89
2023/08/13 08:51:50;;;;;;;14.10;6.80;;;19.50;1.00;;;;;;4998368;28;20042;-87
2023/08/13 08:54:16;;;;;;;11.05;4.15;;;;;;;;;;4982983;28;20059;-88
2023/08/13 08:56:42;;;;;;;8.13;3.97;;;;;;;;;;4998423;28;20468;-88
2023/08/13 08:59:08;;;;;;;8.32;3.80;;;;;;;;;;4982398;28;20103;-86
2023/08/13 09:01:34;;;;;;;8.10;4.13;;;;;;;;;;4997855;28;20041;-88
2023/08/13 09:04:00;;;;;;;11.88;5.38;;;;;;;;;;4997659;28;20077;-89
2023/08/13 09:06:55;;;;;;;11.52;3.60;;;19.80;1.00;;;;;;5013903;28;20048;-85
2023/08/13 09:09:22;;;;;;;4.20;3.25;;;;;;;;;;5013786;28;20513;-88
2023/08/13 09:11:48;;;;;;;9.45;2.80;;;;;;;;;;4997639;28;20054;-88
2023/08/13 09:14:14;;;;;;;8.13;2.63;;;;;;;;;;5013957;28;20133;-90
2023/08/13 09:16:47;;;;;;;6.57;2.30;;;19.80;1.00;;;;;;5001415;28;20041;-87
2023/08/13 09:19:14;;;;;;;8.05;2.50;;;20.00;1.00;;;;;;5001321;28;20049;-84
2023/08/13 09:21:40;;;;;;;4.75;2.85;;;;;;;;;;4985230;28;20491;-87
2023/08/13 09:24:08;;;;;;;10.82;2.42;;;20.50;1.00;;;;;;5001415;28;20518;-86
2023/08/13 09:26:34;;;;;;;7.40;2.70;;;20.50;1.00;;;;;;5001086;28;20041;-88
2023/08/13 09:29:00;;;;;;;4.93;2.38;;;;;;;;;;4985044;28;20103;-88
2023/08/13 09:31:26;;;;;;;7.43;2.20;;;;;;;;;;5017411;28;20047;-86
2023/08/13 09:33:52;;;;;;;4.10;2.70;;;;;;;;;;5001060;28;20108;-86
2023/08/13 09:36:18;;;;;;;3.58;2.28;;;;;;;;;;5000877;28;20049;-87
2023/08/13 09:38:44;;;;;;;6.72;2.90;;;;;;;;;;5000738;28;20083;-87
2023/08/13 09:41:13;;;;;;;5.68;2.40;;;20.80;1.00;;;;;;5000831;28;20045;-89
2023/08/13 09:43:39;;;;;;;6.40;2.25;;;20.60;1.00;;;;;;5000821;28;20053;-86
2023/08/13 09:46:06;;;;;;;6.22;2.50;;;;;;;;;;5000974;28;20052;-88
2023/08/13 09:48:32;;;;;;;8.10;3.13;;;;;;;;;;5017157;28;20053;-88
2023/08/13 09:51:01;;;;;;;3.15;2.25;;;20.90;1.00;;;;;;5000704;28;20041;-88
2023/08/13 09:53:29;;;;;;;6.88;2.75;;;20.90;1.00;;;;;;5001081;28;20137;-87
2023/08/13 09:55:59;;;;;;;8.43;2.83;;;21.00;1.00;;;;;;5000552;28;20502;-89
2023/08/13 09:58:25;;;;;;;5.47;1.80;;;;;;;;;;5017084;28;20056;-87
2023/08/13 10:00:51;;;;;;;6.75;2.00;;;;;;;;;;5000814;28;20045;-87
2023/08/13 10:03:18;;;;;;;8.23;2.75;;;20.90;1.00;;;;;;5000220;28;20044;-88
2023/08/13 10:05:45;;;;;;;10.13;2.85;;;;;;;;;;5016681;28;20099;-89
2023/08/13 10:08:11;;;;;;;7.97;3.15;;;;;;;;;;5016688;28;20048;-88
2023/08/13 10:10:38;;;;;;;5.13;2.10;;;;;;;;;;5000256;28;20050;-88
2023/08/13 10:13:04;;;;;;;7.55;2.92;;;21.20;1.00;;;;;;5034430;28;20045;-88
2023/08/13 10:15:33;;;;;;;4.20;2.15;;;21.20;1.00;;;;;;5016392;28;20541;-89
2023/08/13 10:17:59;;;;;;;6.32;2.40;;;;;;;;;;5016408;28;20049;-87
2023/08/13 10:20:25;;;;;;;8.88;2.33;;;21.10;1.00;;;;;;4999986;28;20052;-85
2023/08/13 10:22:53;;;;;;;15.60;2.88;;;21.00;1.00;;;;;;4983919;28;20502;-87
2023/08/13 10:25:27;;;;;;;8.68;2.05;;;21.10;1.00;;;;;;5016450;28;20053;-85
2023/08/13 10:27:54;;;;;;;10.32;3.45;;;;;;;;;;5015644;28;20041;-88
2023/08/13 10:30:20;;;;;;;8.55;2.33;;;;;;;;;;5000181;28;20052;-85
2023/08/13 10:32:51;;;;;;;6.82;3.40;;;21.20;1.00;;;;;;4999960;28;20180;-87
2023/08/13 10:35:25;;;;;;;6.20;3.40;;;21.30;1.00;;;;;;4999723;28;20058;-87
2023/08/13 10:37:53;;;;;;;6.50;2.75;;;21.30;1.00;;;;;;5016096;28;20045;-86
2023/08/13 10:40:19;;;;;;;8.70;2.25;;;;;;;;;;4999611;28;20046;-86
2023/08/13 10:42:47;;;;;;;4.82;2.35;;;21.20;1.00;;;;;;4999764;28;20046;-86
2023/08/13 10:45:20;;;;;;;6.60;2.75;;;21.50;1.00;;;;;;4967793;28;20092;-85
2023/08/13 10:47:48;;;;;;;4.93;2.05;;;21.50;1.00;;;;;;5017512;28;20041;-89
2023/08/13 10:50:20;;;;;;;3.80;2.33;;;21.90;1.00;;;;;;5000063;28;20041;-89
2023/08/13 10:53:10;;;;;;;5.90;3.03;;;21.90;1.00;;;;;;5000478;28;20052;-89
2023/08/13 10:55:39;;;;;;;6.15;2.58;;;21.90;1.00;;;;;;5003179;28;20518;-88
2023/08/13 10:58:06;;;;;;;7.30;2.13;;;21.90;1.00;;;;;;5016514;28;20076;-87
2023/08/13 11:00:41;;;;;;;7.32;2.53;;;21.90;1.00;;;;;;5015641;28;20042;-86
2023/08/13 11:03:20;;;;;;;2.17;1.92;;;22.10;1.00;;;;;;5015707;28;20379;-89
2023/08/13 11:05:48;;;;;;;4.95;1.77;;;22.30;1.00;;;;;;5016033;28;20096;-85
2023/08/13 11:08:19;;;;;;;8.40;2.20;;;22.20;1.00;;;;;;5015776;28;20557;-85
2023/08/13 11:10:47;;;;;;;3.60;2.00;;;22.60;1.00;;;;;;4999331;28;20057;-88
2023/08/13 11:13:13;;;;;;;2.00;1.88;;;22.50;1.00;;;;;;4983256;28;20041;-86
2023/08/13 11:15:41;;;;;;;5.47;2.22;;;22.50;1.00;;;;;;5015399;28;20091;-86
2023/08/13 11:18:07;;;;;;;5.38;1.95;;;;;;;;;;5015901;28;20067;-86
2023/08/13 11:20:33;;;;;;;3.80;1.80;;;;;;;;;;4982955;28;20041;-87
2023/08/13 11:23:03;;;;;;;4.30;2.10;;;22.40;1.00;;;;;;5015170;28;20041;-87
2023/08/13 11:25:30;;;;;;;3.13;1.63;;;22.80;1.00;;;;;;5015054;28;20061;-87
2023/08/13 11:27:56;;;;;;;4.28;1.67;;;22.60;1.00;;;;;;4999244;28;20072;-86
2023/08/13 11:30:21;;;;;;;6.15;2.10;;;22.70;1.00;;;;;;4982726;28;20037;-86
2023/08/13 11:32:47;;;;;;;2.75;1.80;;;22.80;1.00;;;;;;4966834;28;20132;-86
2023/08/13 11:35:13;;;;;;;3.90;2.00;;;22.30;1.00;;;;;;5015795;28;20525;-86
2023/08/13 11:37:40;;;;;;;1.80;1.58;;;22.60;1.00;;;;;;4999076;28;20124;-86
2023/08/13 11:40:10;;;;;;;2.22;2.00;;;22.40;1.00;;;;;;5014811;28;20141;-87
2023/08/13 11:42:36;;;;;;;4.68;2.22;;;;;;;;;;4999553;28;20045;-87
2023/08/13 11:45:12;;;;;;;5.88;3.10;;;22.70;1.00;;;;;;4999343;28;20057;-86
2023/08/13 11:47:37;;;;;;;5.82;2.05;;;22.70;1.00;;;;;;4999704;28;20060;-86
2023/08/13 11:50:03;;;;;;;3.05;1.90;;;22.40;1.00;;;;;;4982886;28;20037;-86
2023/08/13 11:52:30;;;;;;;3.67;2.40;;;22.50;1.00;;;;;;4998976;28;20053;-87
2023/08/13 11:54:57;;;;;;;6.70;2.50;;;22.50;1.00;;;;;;4998828;28;20042;-85
2023/08/13 11:57:22;;;;;;;6.13;2.75;;;22.40;1.00;;;;;;4998283;28;20053;-86
2023/08/13 11:59:49;;;;;;;7.00;2.38;;;22.50;1.00;;;;;;4998686;28;20041;-85
2023/08/13 12:02:18;;;;;;;5.43;2.20;;;22.40;1.00;;;;;;4998908;28;20049;-86
2023/08/13 12:04:48;;;;;;;4.10;2.30;;;22.40;1.00;;;;;;4998909;28;20402;-85
2023/08/13 12:07:13;;;;;;;7.18;2.28;;;22.60;1.00;;;;;;4966729;28;20049;-86
2023/08/13 12:09:39;;;;;;;4.57;2.30;;;22.40;1.00;;;;;;5014936;28;20049;-85
2023/08/13 12:12:05;;;;;;;5.72;2.22;;;22.30;1.00;;;;;;4982165;28;20047;-86
2023/08/13 12:14:32;;;;;;;3.63;1.80;;;22.50;1.00;;;;;;4982422;28;20045;-86
2023/08/13 12:16:58;;;;;;;4.50;2.75;;;22.60;1.00;;;;;;4998540;28;20056;-86
2023/08/13 12:19:24;;;;;;;4.90;1.80;;;22.30;1.00;;;;;;4998868;28;20041;-85
2023/08/13 12:21:50;;;;;;;4.90;1.92;;;22.40;1.00;;;;;;4982350;28;20490;-86
2023/08/13 12:24:15;;;;;;;4.10;2.03;;;22.10;1.00;;;;;;4983299;28;20103;-85
2023/08/13 12:26:41;;;;;;;3.72;1.70;;;;;;;;;;4983515;28;20068;-86
2023/08/13 12:29:08;;;;;;;2.92;2.00;;;;;;;;;;4999481;28;20521;-84
2023/08/13 12:31:34;;;;;;;3.28;1.77;;;22.10;1.00;;;;;;4983713;28;20049;-86
2023/08/13 12:34:00;;;;;;;3.38;1.85;;;22.30;1.00;;;;;;5015189;28;20065;-85
2023/08/13 12:36:26;;;;;;;5.68;2.65;;;;;;;;;;4998732;28;20502;-86
2023/08/13 12:38:52;;;;;;;5.32;2.22;;;22.10;1.00;;;;;;5014920;28;20077;-85
2023/08/13 12:41:18;;;;;;;5.63;1.77;;;22.10;1.00;;;;;;4982582;28;20661;-85
2023/08/13 12:43:43;;;;;;;1.98;1.50;;;22.30;1.00;;;;;;4999004;28;20452;-85
2023/08/13 12:46:09;;;;;;;5.90;1.48;;;22.30;1.00;;;;;;4965982;28;20052;-85
2023/08/13 12:48:37;;;;;;;3.15;1.88;;;22.40;1.00;;;;;;4982541;28;20052;-85
2023/08/13 12:51:04;;;;;;;3.70;1.40;;;22.40;1.00;;;;;;5001488;28;20453;-86
2023/08/13 12:53:30;;;;;;;3.80;1.52;;;22.50;1.00;;;;;;5002602;28;20104;-86
2023/08/13 12:55:56;;;;;;;4.75;1.80;;;22.40;1.00;;;;;;5018669;28;20565;-85
2023/08/13 12:58:22;;;;;;;5.97;1.38;;;;;;;;;;5018567;28;20041;-85
2023/08/13 13:00:48;;;;;;;2.03;1.40;;;22.60;1.00;;;;;;5018485;28;20050;-85
2023/08/13 13:03:14;;;;;;;1.33;1.00;;;;;;;;;;5018643;28;20048;-84
2023/08/13 13:05:41;;;;;;;2.45;1.35;;;;;;;;;;5036059;28;20414;-86
2023/08/13 13:08:07;;;;;;;2.60;1.60;;;;;;;;;;5018643;28;20449;-85
2023/08/13 13:10:33;;;;;;;1.52;1.10;;;;;;;;;;5018834;28;20046;-85
2023/08/13 13:12:59;;;;;;;3.97;1.20;;;;;;;;;;5036644;28;20043;-85
2023/08/13 13:15:25;;;;;;;1.90;1.02;;;;;;;;;;5019094;28;20490;-85
2023/08/13 13:17:51;;;;;;;8.20;1.60;;;22.50;1.00;;;;;;5018890;28;20045;-85
2023/08/13 13:20:18;;;;;;;3.00;1.50;;;22.50;1.00;;;;;;4986096;28;20048;-85
2023/08/13 13:22:43;;;;;;;3.15;1.20;;;22.60;1.00;;;;;;5002082;28;20041;-84
2023/08/13 13:25:12;;;;;;;6.13;2.17;;;22.50;1.00;;;;;;4994217;28;20707;-85
2023/08/13 13:27:40;;;;;;;1.75;1.20;;;;;;;;;;4980957;28;20050;-84
2023/08/13 13:30:07;;;;;;;5.78;1.75;;;22.80;1.00;;;;;;4982733;28;20066;-85
2023/08/13 13:32:34;;;;;;;2.55;1.02;;;22.60;1.00;;;;;;4981081;28;20052;-85
2023/08/13 13:35:00;;;;;;;4.65;1.55;;;22.60;1.00;;;;;;5003912;28;20517;-87
2023/08/13 13:37:28;;;;;;;4.45;1.40;;;22.80;1.00;;;;;;5008930;28;20046;-84
2023/08/13 13:39:55;;;;;;;3.15;0.80;;;22.90;1.00;;;;;;5020422;28;20060;-86
2023/08/13 13:42:21;;;;;;;2.20;1.55;;;;;;;;;;4989435;28;20096;-88
2023/08/13 13:44:47;;;;;;;0.82;0.70;;;22.70;1.00;;;;;;5020093;28;20058;-86
2023/08/13 13:47:13;;;;;;;1.30;1.20;;;;;;;;;;4990533;28;20045;-86
2023/08/13 13:49:39;;;;;;;1.70;1.00;;;;;;;;;;5019200;28;20136;-86
2023/08/13 13:52:05;;;;;;;2.63;0.90;;;22.70;1.00;;;;;;5019835;28;20120;-85
2023/08/13 13:54:32;;;;;;;4.03;1.13;;;;;;;;;;5017702;28;20471;-87
2023/08/13 13:56:58;;;;;;;3.10;1.38;;;22.50;1.00;;;;;;5002994;28;20045;-86